Estación Meteorológica Peña el Pijo (Robertgarden) [ 09/25/18 06:39:23 CEST ]

Fecha Hora Presion(HPa) Temp (°C) Humedad % Rocio (°C) Viento ( m/s) Direccion Lluvia 1Hora(mm) Lluvia 24H(mm) LLuvia Total(mm)
2018-May-26 01:01:48 1006.200 12.4 73 7.7         219.11
2018-May-26 02:01:49 1005.700 12.1 73 7.4         219.11
2018-May-26 03:03:26 1005.400 11.1 75 6.8         219.11
2018-May-26 04:01:49 1005.200 11.2 76 7.1         219.11
2018-May-26 05:01:42 1004.900 10.8 77 6.9         219.11
2018-May-26 06:01:41 1004.700 9.9 80 6.6         219.11
2018-May-26 07:01:40 1005.300 8.3 81 5.2         219.11
2018-May-26 08:01:43 1005.200 9.9 85 7.4         219.11
2018-May-26 09:01:49 1005.300 14.7 79 11.1         219.11
2018-May-26 10:01:46 1005.200 18.1 64 11.1         219.11
2018-May-26 11:01:48 1005.300 21.3 54 11.6         219.11
2018-May-26 12:01:56 1005.200 21.9 49 10.7         219.11
2018-May-26 13:01:46 1005.000 24.4 44 11.3         219.11
2018-May-26 14:01:35 1005.000 23.6 34 6.7         219.11
2018-May-26 15:01:51 1004.900 25.1 32 7.2         219.11
2018-May-26 16:01:43 1004.700 23.9 38 8.7         219.11
2018-May-26 17:01:43 1004.200 23.9 40 9.5         219.11
2018-May-26 18:01:54 1004.100 25.3 39 10.3         219.11
2018-May-26 19:01:50 1003.900 21.6 50 10.7 1.2 S     219.11
2018-May-26 20:01:43 1004.600 19.8 56 10.7         219.11
2018-May-26 21:01:51 1005.000 18.2 62 10.8         219.11
2018-May-26 22:01:51 1005.600 16.9 66 10.5         219.11
2018-May-26 23:01:45 1006.400 15.3 70 9.9         219.11

Temperatura Máxima:25°    Temperatura Mínima:
Presión Máxima:1006.400 Hpa    Presión Mínima:1003.900 Hpa


Volver